Time;durP1;ratioP1;P1;durP2;ratioP2;P2;SDS_P1;SDS_P2;PMS_P1;PMS_P2;Temp;Humidity;BMP_temperature;BMP_pressure;BME280_temperature;BME280_humidity;BME280_pressure;Samples;Min_cycle;Max_cycle;Signal;HPM_P1;HPM_P2
2023/03/27 19:23:46;;;;;;;11.10;5.80;;;;;;;13.86;44.88;98985.05;103177;1288;605388;-70
2023/03/27 19:26:16;;;;;;;11.60;6.30;;;;;;;14.13;44.43;98978.10;104765;1272;94927;-70
2023/03/27 19:28:46;;;;;;;14.30;6.70;;;;;;;14.08;44.51;98974.86;105236;1266;59348;-72
2023/03/27 19:31:14;;;;;;;14.20;7.50;;;;;;;14.01;44.66;98971.56;105096;1272;65019;-71
2023/03/27 19:33:41;;;;;;;16.00;7.70;;;;;;;13.94;44.69;98970.42;104999;1269;59735;-73
2023/03/27 19:36:08;;;;;;;18.00;7.90;;;;;;;13.89;44.84;98966.60;105289;1266;65541;-72
2023/03/27 19:38:37;;;;;;;21.10;9.10;;;;;;;13.84;45.11;98961.48;105140;1266;59347;-71
2023/03/27 19:41:08;;;;;;;21.80;9.20;;;;;;;13.81;45.12;98960.27;105267;1263;59811;-71
2023/03/27 19:43:40;;;;;;;21.90;9.60;;;;;;;13.78;45.28;98959.58;105113;1264;65283;-72
2023/03/27 19:46:07;;;;;;;22.30;9.90;;;;;;;13.74;45.34;98961.20;104991;1263;60335;-71
2023/03/27 19:48:46;;;;;;;18.40;9.40;;;;;;;13.71;45.58;98960.44;104974;1263;64274;-72
2023/03/27 19:51:21;;;;;;;20.30;9.60;;;;;;;13.69;45.69;98961.73;105019;1267;59547;-72
2023/03/27 19:54:00;;;;;;;24.70;9.90;;;;;;;13.69;45.81;98963.27;105157;1263;59545;-72
2023/03/27 19:56:27;;;;;;;21.90;9.50;;;;;;;13.68;45.86;98960.88;105905;1264;66587;-72
2023/03/27 19:58:54;;;;;;;23.90;10.70;;;;;;;13.66;45.94;98959.06;105285;1263;61235;-72
2023/03/27 20:01:27;;;;;;;25.80;10.20;;;;;;;13.65;46.05;98956.10;107711;1262;65439;-71
2023/03/27 20:03:56;;;;;;;21.80;10.00;;;;;;;13.64;46.07;98953.92;105205;1263;59632;-72
2023/03/27 20:06:24;;;;;;;22.80;10.20;;;;;;;13.64;46.15;98951.60;104994;1264;59743;-71
2023/03/27 20:08:52;;;;;;;20.60;9.70;;;;;;;13.64;46.29;98947.35;104972;1263;64646;-72
2023/03/27 20:11:20;;;;;;;17.30;8.40;;;;;;;13.64;46.40;98941.18;105275;1266;59694;-71
2023/03/27 20:13:47;;;;;;;17.90;9.10;;;;;;;13.64;46.60;98938.73;105102;1264;65895;-71
2023/03/27 20:16:26;;;;;;;19.60;10.00;;;;;;;13.64;46.63;98938.09;104950;1267;59564;-72
2023/03/27 20:19:01;;;;;;;21.20;10.20;;;;;;;13.64;46.70;98931.92;105903;1264;59650;-71
2023/03/27 20:21:39;;;;;;;22.10;10.10;;;;;;;13.65;46.92;98930.55;104974;1263;65875;-71
2023/03/27 20:24:10;;;;;;;24.00;10.10;;;;;;;13.66;46.99;98932.23;104950;1263;59757;-70
2023/03/27 20:26:40;;;;;;;23.30;10.20;;;;;;;13.66;47.14;98927.30;104992;1269;64638;-72
2023/03/27 20:29:14;;;;;;;;;;;;;;;13.66;47.28;98925.05;104912;1263;59692;-72
2023/03/27 20:31:41;;;;;;;27.30;11.50;;;;;;;13.65;47.29;98921.98;104955;1263;59657;-70
2023/03/27 20:34:09;;;;;;;31.50;12.60;;;;;;;13.64;47.45;98920.83;105533;1269;65763;-72
2023/03/27 20:36:37;;;;;;;30.70;13.70;;;;;;;13.63;47.47;98919.70;105213;1269;59886;-73
2023/03/27 20:39:37;;;;;;;32.40;13.60;;;;;;;13.62;47.45;98921.52;104978;1263;65533;-71
2023/03/27 20:42:06;;;;;;;31.30;13.00;;;;;;;13.62;47.54;98921.17;104931;1263;59726;-70
2023/03/27 20:44:34;;;;;;;26.70;11.60;;;;;;;13.62;47.64;98918.19;105088;1263;59974;-69
2023/03/27 20:47:11;;;;;;;21.40;9.60;;;;;;;13.61;47.77;98915.01;105180;1266;65624;-68
2023/03/27 20:49:39;;;;;;;19.30;9.10;;;;;;;13.61;47.95;98912.49;105387;1264;59804;-70
2023/03/27 20:52:11;;;;;;;16.10;7.60;;;;;;;13.58;48.13;98912.84;104986;1269;65534;-70
2023/03/27 20:54:39;;;;;;;11.90;6.60;;;;;;;13.53;48.44;98914.20;105089;1269;59991;-68
2023/03/27 20:57:08;;;;;;;12.60;5.60;;;;;;;13.50;48.74;98907.02;104959;1268;59520;-67
2023/03/27 20:59:35;;;;;;;7.50;4.40;;;;;;;13.49;48.96;98907.52;104922;1263;65654;-68
2023/03/27 21:02:05;;;;;;;8.60;4.70;;;;;;;13.47;49.05;98904.88;105175;1268;59748;-70
